createdAt,value
2023-01-15T00:02:25.415Z,99479.16
2023-01-15T00:05:26.802Z,99479.16
2023-01-15T00:08:28.544Z,99475.75
2023-01-15T00:11:30.023Z,99469.91
2023-01-15T00:14:31.440Z,99462.38
2023-01-15T00:17:32.919Z,99464.19
2023-01-15T00:20:34.299Z,99469.41
2023-01-15T00:23:35.823Z,99474.53
2023-01-15T00:26:37.903Z,99466.94
2023-01-15T00:29:39.279Z,99479.81
2023-01-15T00:32:42.327Z,99487.34
2023-01-15T00:35:43.695Z,99487.44
2023-01-15T00:38:45.110Z,99497.59
2023-01-15T00:41:47.130Z,99487.44
2023-01-15T00:44:48.555Z,99493.53
2023-01-15T00:47:50.159Z,99489.31
2023-01-15T00:50:51.487Z,99497.00
2023-01-15T00:53:52.850Z,99496.28
2023-01-15T00:56:54.204Z,99498.06
2023-01-15T00:59:55.596Z,99499.00
2023-01-15T01:02:57.321Z,99503.28
2023-01-15T01:06:02.953Z,99516.00
2023-01-15T01:09:04.800Z,99520.31
2023-01-15T01:12:06.558Z,99516.00
2023-01-15T01:15:08.537Z,99526.44
2023-01-15T01:18:11.028Z,99529.84
2023-01-15T01:21:12.456Z,99533.22
2023-01-15T01:24:16.861Z,99535.59
2023-01-15T01:27:18.272Z,99536.44
2023-01-15T01:30:19.614Z,99540.56
2023-01-15T01:33:20.973Z,99530.41
2023-01-15T01:36:31.209Z,99532.88
2023-01-15T01:39:33.065Z,99533.72
2023-01-15T01:42:34.548Z,99537.78
2023-01-15T01:45:36.031Z,99549.59
2023-01-15T01:48:38.565Z,99543.63
2023-01-15T01:52:01.955Z,99541.81
2023-01-15T01:55:04.340Z,99544.47
2023-01-15T01:58:09.147Z,99530.00
2023-01-15T02:01:10.688Z,99528.16
2023-01-15T02:04:13.651Z,99517.91
2023-01-15T02:07:16.864Z,99518.84
2023-01-15T02:10:18.726Z,99518.09
2023-01-15T02:13:41.555Z,99516.44
2023-01-15T02:17:00.879Z,99523.28
2023-01-15T02:20:21.974Z,99511.31
2023-01-15T02:23:32.825Z,99519.91
2023-01-15T02:27:03.616Z,99536.28
2023-01-15T02:30:16.390Z,99535.28
2023-01-15T02:33:33.739Z,99530.16
2023-01-15T02:36:40.216Z,99525.03
2023-01-15T02:39:47.343Z,99521.00
2023-01-15T02:42:50.291Z,99522.56
2023-01-15T02:45:56.930Z,99516.69
2023-01-15T02:49:00.292Z,99527.00
2023-01-15T02:52:16.758Z,99516.78
2023-01-15T02:55:24.245Z,99524.38
2023-01-15T02:58:32.685Z,99521.91
2023-01-15T03:01:43.137Z,99508.31
2023-01-15T03:05:02.169Z,99512.53
2023-01-15T03:08:07.316Z,99521.13
2023-01-15T03:11:16.656Z,99507.50
2023-01-15T03:14:27.128Z,99520.50
2023-01-15T03:17:55.207Z,99509.41
2023-01-15T03:21:03.844Z,99498.06
2023-01-15T03:24:09.770Z,99499.09
2023-01-15T03:27:12.923Z,99505.03
2023-01-15T03:30:21.876Z,99490.56
2023-01-15T03:33:25.391Z,99495.09
2023-01-15T03:36:26.782Z,99491.72
2023-01-15T03:39:33.322Z,99485.03
2023-01-15T03:42:58.650Z,99487.50
2023-01-15T03:46:06.600Z,99486.59
2023-01-15T03:49:46.205Z,99492.53
2023-01-15T03:53:18.303Z,99474.69
2023-01-15T03:56:48.646Z,99479.91
2023-01-15T03:59:57.205Z,99467.19
2023-01-15T04:03:01.426Z,99483.88
2023-01-15T04:06:06.720Z,99473.13
2023-01-15T04:09:11.996Z,99464.72
2023-01-15T04:12:13.574Z,99474.69
2023-01-15T04:15:19.647Z,99455.59
2023-01-15T04:18:21.811Z,99456.44
2023-01-15T04:21:23.675Z,99451.50
2023-01-15T04:24:25.507Z,99451.50
2023-01-15T04:27:26.855Z,99452.56
2023-01-15T04:30:28.383Z,99446.06
2023-01-15T04:33:29.791Z,99433.38
2023-01-15T04:36:31.120Z,99434.88
2023-01-15T04:39:33.172Z,99444.47
2023-01-15T04:42:34.680Z,99433.66
2023-01-15T04:45:36.030Z,99440.66
2023-01-15T04:48:39.301Z,99449.28
2023-01-15T04:51:40.726Z,99454.69
2023-01-15T04:54:42.257Z,99453.72
2023-01-15T04:57:43.599Z,99442.50
2023-01-15T05:00:44.955Z,99430.50
2023-01-15T05:03:46.405Z,99440.75
2023-01-15T05:06:47.766Z,99440.75
2023-01-15T05:09:49.134Z,99443.81
2023-01-15T05:12:50.467Z,99441.31
2023-01-15T05:15:51.865Z,99452.38
2023-01-15T05:18:56.442Z,99436.13
2023-01-15T05:21:57.778Z,99436.28
2023-01-15T05:24:59.132Z,99430.59
2023-01-15T05:28:00.499Z,99423.16
2023-01-15T05:31:18.640Z,99426.28
2023-01-15T05:34:21.255Z,99429.91
2023-01-15T05:37:22.614Z,99427.53
2023-01-15T05:40:23.960Z,99433.41
2023-01-15T05:43:25.349Z,99433.06
2023-01-15T05:46:27.091Z,99432.16
2023-01-15T05:49:29.683Z,99433.31
2023-01-15T05:52:31.085Z,99435.94
2023-01-15T05:55:32.720Z,99433.25
2023-01-15T05:58:34.350Z,99428.50
2023-01-15T06:01:36.035Z,99424.22
2023-01-15T06:04:37.458Z,99413.97
2023-01-15T06:07:38.799Z,99424.84
2023-01-15T06:10:40.153Z,99431.91
2023-01-15T06:13:41.533Z,99428.44
2023-01-15T06:16:43.209Z,99425.78
2023-01-15T06:19:44.553Z,99430.75
2023-01-15T06:22:49.256Z,99433.31
2023-01-15T06:25:50.593Z,99432.31
2023-01-15T06:28:52.330Z,99431.31
2023-01-15T06:31:53.683Z,99430.34
2023-01-15T06:34:55.014Z,99441.47
2023-01-15T06:37:56.403Z,99439.81
2023-01-15T06:41:02.083Z,99428.31
2023-01-15T06:44:04.096Z,99432.72
2023-01-15T06:47:17.327Z,99434.53
2023-01-15T06:50:19.055Z,99429.47
2023-01-15T06:53:21.059Z,99431.16
2023-01-15T06:56:22.487Z,99427.91
2023-01-15T06:59:23.830Z,99424.81
2023-01-15T07:02:25.210Z,99424.84
2023-01-15T07:05:26.587Z,99420.09
2023-01-15T07:08:27.924Z,99422.72
2023-01-15T07:11:29.404Z,99413.13
2023-01-15T07:14:30.885Z,99418.09
2023-01-15T07:17:32.304Z,99424.94
2023-01-15T07:20:33.743Z,99412.31
2023-01-15T07:23:35.089Z,99429.53
2023-01-15T07:26:37.244Z,99418.34
2023-01-15T07:29:38.636Z,99421.16
2023-01-15T07:32:40.077Z,99417.69
2023-01-15T07:35:41.566Z,99416.22
2023-01-15T07:38:42.937Z,99421.66
2023-01-15T07:41:44.303Z,99432.88
2023-01-15T07:44:46.304Z,99435.22
2023-01-15T07:47:47.679Z,99431.19
2023-01-15T07:50:49.088Z,99436.28
2023-01-15T07:53:50.457Z,99427.13
2023-01-15T07:56:53.184Z,99434.81
2023-01-15T07:59:54.544Z,99431.66
2023-01-15T08:02:55.886Z,99447.69
2023-01-15T08:05:57.322Z,99440.25
2023-01-15T08:08:58.684Z,99446.94
2023-01-15T08:12:01.182Z,99429.09
2023-01-15T08:15:02.561Z,99422.06
2023-01-15T08:18:03.985Z,99429.53
2023-01-15T08:21:05.556Z,99431.31
2023-01-15T08:24:07.176Z,99434.78
2023-01-15T08:27:08.654Z,99428.34
2023-01-15T08:30:16.589Z,99431.81
2023-01-15T08:33:17.939Z,99426.94
2023-01-15T08:36:19.395Z,99424.88
2023-01-15T08:39:20.923Z,99422.41
2023-01-15T08:42:22.569Z,99427.53
2023-01-15T08:45:24.367Z,99413.88
2023-01-15T08:48:27.463Z,99405.97
2023-01-15T08:51:28.846Z,99407.88
2023-01-15T08:54:30.379Z,99407.13
2023-01-15T08:57:31.729Z,99393.50
2023-01-15T09:00:33.125Z,99394.34
2023-01-15T09:03:34.796Z,99399.38
2023-01-15T09:06:36.169Z,99397.53
2023-01-15T09:09:37.524Z,99397.72
2023-01-15T09:12:38.891Z,99397.78
2023-01-15T09:15:40.256Z,99398.78
2023-01-15T09:18:41.687Z,99419.81
2023-01-15T09:21:43.101Z,99393.53
2023-01-15T09:24:44.537Z,99411.03
2023-01-15T09:27:46.425Z,99408.69
2023-01-15T09:30:47.862Z,99402.56
2023-01-15T09:33:49.290Z,99414.53
2023-01-15T09:36:50.663Z,99409.41
2023-01-15T09:39:52.016Z,99412.28
2023-01-15T09:43:02.207Z,99423.84
2023-01-15T09:46:16.024Z,99418.84
2023-01-15T09:49:31.178Z,99414.34
2023-01-15T09:52:44.533Z,99420.00
2023-01-15T09:55:48.263Z,99417.50
2023-01-15T09:58:50.709Z,99415.50
2023-01-15T10:01:53.351Z,99410.38
2023-01-15T10:05:02.664Z,99410.47
2023-01-15T10:08:14.026Z,99402.59
2023-01-15T10:11:15.359Z,99409.97
2023-01-15T10:14:33.759Z,99415.09
2023-01-15T10:17:42.166Z,99416.72
2023-01-15T10:20:52.639Z,99420.84
2023-01-15T10:24:04.927Z,99418.00
2023-01-15T10:27:19.724Z,99409.47
2023-01-15T10:30:38.956Z,99412.22
2023-01-15T10:34:17.454Z,99406.44
2023-01-15T10:37:48.271Z,99400.88
2023-01-15T10:41:26.249Z,99405.91
2023-01-15T10:44:49.184Z,99404.00
2023-01-15T10:47:57.693Z,99394.00
2023-01-15T10:51:03.718Z,99378.63
2023-01-15T10:54:14.660Z,99386.50
2023-01-15T10:57:28.561Z,99382.84
2023-01-15T11:00:29.953Z,99369.03
2023-01-15T11:03:42.708Z,99375.16
2023-01-15T11:06:44.284Z,99390.53
2023-01-15T11:09:46.233Z,99367.56
2023-01-15T11:13:01.821Z,99362.44
2023-01-15T11:16:03.739Z,99366.72
2023-01-15T11:19:07.345Z,99362.25
2023-01-15T11:22:17.461Z,99343.66
2023-01-15T11:25:29.649Z,99350.91
2023-01-15T11:28:40.383Z,99337.69
2023-01-15T11:31:41.857Z,99349.66
2023-01-15T11:34:52.645Z,99365.22
2023-01-15T11:38:12.763Z,99374.81
2023-01-15T11:41:26.440Z,99360.13
2023-01-15T11:44:27.854Z,99371.25
2023-01-15T11:47:29.219Z,99385.66
2023-01-15T11:50:30.604Z,99370.88
2023-01-15T11:53:42.433Z,99373.63
2023-01-15T11:56:45.785Z,99356.84
2023-01-15T11:59:49.321Z,99357.69
2023-01-15T12:02:55.483Z,99348.00
2023-01-15T12:06:03.063Z,99349.63
2023-01-15T12:09:25.079Z,99338.22
2023-01-15T12:12:41.791Z,99353.19
2023-01-15T12:15:52.540Z,99353.78
2023-01-15T12:18:58.765Z,99347.88
2023-01-15T12:22:15.063Z,99330.22
2023-01-15T12:25:55.287Z,99327.56
2023-01-15T12:29:12.525Z,99336.91
2023-01-15T12:32:18.720Z,99318.88
2023-01-15T12:35:30.022Z,99327.59
2023-01-15T12:38:46.056Z,99318.91
2023-01-15T12:41:53.805Z,99319.38
2023-01-15T12:44:59.785Z,99307.00
2023-01-15T12:48:22.314Z,99309.81
2023-01-15T12:51:33.764Z,99300.13
2023-01-15T12:54:48.154Z,99288.97
2023-01-15T12:58:00.228Z,99290.28
2023-01-15T13:01:23.843Z,99290.19
2023-01-15T13:04:37.595Z,99292.84
2023-01-15T13:07:43.245Z,99280.69
2023-01-15T13:10:45.730Z,99279.88
2023-01-15T13:13:47.346Z,99284.91
2023-01-15T13:17:20.325Z,99274.75
2023-01-15T13:20:35.894Z,99268.44
2023-01-15T13:24:20.756Z,99264.94
2023-01-15T13:27:22.072Z,99264.25
2023-01-15T13:30:38.631Z,99263.16
2023-01-15T13:33:46.313Z,99259.59
2023-01-15T13:36:49.042Z,99264.28
2023-01-15T13:39:55.491Z,99277.63
2023-01-15T13:42:57.047Z,99269.28
2023-01-15T13:45:58.978Z,99255.66
2023-01-15T13:49:00.411Z,99262.16
2023-01-15T13:52:03.638Z,99278.81
2023-01-15T13:55:50.070Z,99265.00
2023-01-15T13:58:54.264Z,99264.00
2023-01-15T14:01:55.706Z,99253.28
2023-01-15T14:04:57.541Z,99257.13
2023-01-15T14:08:00.728Z,99245.84
2023-01-15T14:11:02.285Z,99243.19
2023-01-15T14:14:30.759Z,99239.28
2023-01-15T14:17:58.537Z,99240.84
2023-01-15T14:21:18.198Z,99242.03
2023-01-15T14:24:39.917Z,99267.56
2023-01-15T14:28:04.063Z,99254.84
2023-01-15T14:31:49.734Z,99250.38
2023-01-15T14:34:56.856Z,99252.72
2023-01-15T14:38:04.351Z,99259.41
2023-01-15T14:41:07.386Z,99252.19
2023-01-15T14:44:08.848Z,99272.22
2023-01-15T14:47:27.597Z,99283.88
2023-01-15T14:50:37.544Z,99289.63
2023-01-15T14:53:45.085Z,99328.97
2023-01-15T14:56:54.421Z,99332.50
2023-01-15T15:00:01.997Z,99340.63
2023-01-15T15:03:12.744Z,99360.31
2023-01-15T15:06:14.514Z,99374.25
2023-01-15T15:09:43.999Z,99373.75
2023-01-15T15:12:58.152Z,99389.31
2023-01-15T15:16:08.078Z,99414.63
2023-01-15T15:19:24.292Z,99424.69
2023-01-15T15:22:30.535Z,99429.06
2023-01-15T15:25:38.130Z,99428.06
2023-01-15T15:28:40.680Z,99448.03
2023-01-15T15:31:51.139Z,99437.00
2023-01-15T15:34:54.431Z,99432.19
2023-01-15T15:38:00.063Z,99431.50
2023-01-15T15:41:05.799Z,99437.91
2023-01-15T15:44:15.088Z,99450.84
2023-01-15T15:47:26.759Z,99449.00
2023-01-15T15:50:31.419Z,99461.69
2023-01-15T15:53:32.848Z,99476.06
2023-01-15T15:56:35.019Z,99467.47
2023-01-15T15:59:39.171Z,99465.06
2023-01-15T16:02:41.706Z,99462.31
2023-01-15T16:05:43.161Z,99460.59
2023-01-15T16:08:52.967Z,99462.31
2023-01-15T16:11:55.088Z,99461.41
2023-01-15T16:14:57.735Z,99471.50
2023-01-15T16:18:00.545Z,99474.06
2023-01-15T16:21:02.581Z,99467.19
2023-01-15T16:24:06.988Z,99497.50
2023-01-15T16:27:14.037Z,99490.81
2023-01-15T16:30:16.293Z,99493.28
2023-01-15T16:33:17.723Z,99501.69
2023-01-15T16:36:19.126Z,99517.56
2023-01-15T16:39:44.001Z,99513.91
2023-01-15T16:42:45.347Z,99520.53
2023-01-15T16:45:55.940Z,99523.84
2023-01-15T16:49:24.652Z,99527.13
2023-01-15T16:52:41.108Z,99530.47
2023-01-15T16:55:42.400Z,99537.22
2023-01-15T16:58:43.776Z,99533.75
2023-01-15T17:01:48.233Z,99543.09
2023-01-15T17:04:50.043Z,99561.53
2023-01-15T17:07:52.306Z,99542.72
2023-01-15T17:11:00.236Z,99545.16
2023-01-15T17:14:20.498Z,99551.06
2023-01-15T17:17:21.787Z,99545.88
2023-01-15T17:20:25.657Z,99533.03
2023-01-15T17:23:29.945Z,99547.47
2023-01-15T17:26:31.463Z,99556.19
2023-01-15T17:29:32.813Z,99559.78
2023-01-15T17:32:35.157Z,99564.09
2023-01-15T17:35:38.501Z,99561.72
2023-01-15T17:38:39.764Z,99575.69
2023-01-15T17:41:41.124Z,99562.72
2023-01-15T17:44:42.832Z,99577.59
2023-01-15T17:47:44.231Z,99571.53
2023-01-15T17:50:45.702Z,99580.72
2023-01-15T17:53:47.077Z,99594.25
2023-01-15T17:56:48.469Z,99596.75
2023-01-15T17:59:49.909Z,99589.66
2023-01-15T18:02:51.501Z,99600.50
2023-01-15T18:05:52.962Z,99591.88
2023-01-15T18:08:57.186Z,99601.88
2023-01-15T18:11:58.658Z,99615.50
2023-01-15T18:15:00.353Z,99611.28
2023-01-15T18:18:01.761Z,99595.16
2023-01-15T18:21:03.291Z,99619.56
2023-01-15T18:24:05.138Z,99625.50
2023-01-15T18:27:06.493Z,99630.38
2023-01-15T18:30:09.391Z,99618.28
2023-01-15T18:33:10.796Z,99614.97
2023-01-15T18:36:14.255Z,99613.25
2023-01-15T18:39:15.619Z,99629.41
2023-01-15T18:42:16.978Z,99626.59
2023-01-15T18:45:18.454Z,99640.41
2023-01-15T18:48:19.855Z,99653.47
2023-01-15T18:51:21.208Z,99650.25
2023-01-15T18:54:22.555Z,99649.50
2023-01-15T18:57:24.413Z,99654.53
2023-01-15T19:00:25.914Z,99662.00
2023-01-15T19:03:27.388Z,99655.22
2023-01-15T19:06:28.764Z,99662.81
2023-01-15T19:09:30.814Z,99673.75
2023-01-15T19:12:34.747Z,99671.19
2023-01-15T19:15:36.108Z,99667.78
2023-01-15T19:18:37.812Z,99670.78
2023-01-15T19:21:39.160Z,99682.13
2023-01-15T19:24:40.616Z,99689.13
2023-01-15T19:27:42.123Z,99697.06
2023-01-15T19:30:45.182Z,99682.72
2023-01-15T19:33:46.515Z,99685.59
2023-01-15T19:36:47.902Z,99694.22
2023-01-15T19:39:49.268Z,99700.25
2023-01-15T19:42:51.454Z,99713.88
2023-01-15T19:45:52.795Z,99708.75
2023-01-15T19:48:54.259Z,99707.03
2023-01-15T19:51:55.625Z,99713.72
2023-01-15T19:54:56.977Z,99710.47
2023-01-15T19:58:03.782Z,99727.63
2023-01-15T20:01:05.449Z,99726.16
2023-01-15T20:04:06.858Z,99740.41
2023-01-15T20:07:08.244Z,99741.06
2023-01-15T20:10:13.516Z,99739.78
2023-01-15T20:13:18.526Z,99737.00
2023-01-15T20:16:22.139Z,99753.03
2023-01-15T20:19:23.539Z,99757.38
2023-01-15T20:22:25.002Z,99764.09
2023-01-15T20:25:29.642Z,99770.88
2023-01-15T20:28:31.332Z,99763.41
2023-01-15T20:31:32.758Z,99770.16
2023-01-15T20:34:34.215Z,99776.06
2023-01-15T20:37:35.627Z,99780.31
2023-01-15T20:40:36.993Z,99780.97
2023-01-15T20:43:38.367Z,99776.41
2023-01-15T20:46:40.110Z,99773.03
2023-01-15T20:49:41.472Z,99772.09
2023-01-15T20:52:47.952Z,99776.41
2023-01-15T20:55:57.074Z,99776.34
2023-01-15T20:58:58.950Z,99770.31
2023-01-15T21:02:00.370Z,99781.31
2023-01-15T21:05:01.824Z,99760.84
2023-01-15T21:08:03.264Z,99763.63
2023-01-15T21:11:04.853Z,99769.63
2023-01-15T21:14:06.256Z,99763.22
2023-01-15T21:17:07.779Z,99767.00
2023-01-15T21:20:11.498Z,99778.38
2023-01-15T21:23:12.914Z,99770.19
2023-01-15T21:26:15.149Z,99765.09
2023-01-15T21:29:16.881Z,99762.75
2023-01-15T21:32:18.248Z,99756.19
2023-01-15T21:35:19.619Z,99754.66
2023-01-15T21:38:21.061Z,99763.94
2023-01-15T21:41:23.112Z,99761.88
2023-01-15T21:44:24.582Z,99767.63
2023-01-15T21:47:25.988Z,99769.41
2023-01-15T21:50:27.348Z,99764.50
2023-01-15T21:53:28.692Z,99766.41
2023-01-15T21:56:30.103Z,99770.81
2023-01-15T21:59:31.575Z,99774.28
2023-01-15T22:02:33.077Z,99770.16
2023-01-15T22:05:34.474Z,99775.41
2023-01-15T22:08:36.405Z,99767.72
2023-01-15T22:11:37.859Z,99772.06
2023-01-15T22:14:39.295Z,99773.72
2023-01-15T22:17:40.664Z,99765.22
2023-01-15T22:20:42.020Z,99767.66
2023-01-15T22:23:44.067Z,99760.50
2023-01-15T22:26:49.091Z,99766.13
2023-01-15T22:29:50.675Z,99762.34
2023-01-15T22:32:52.027Z,99763.28
2023-01-15T22:36:00.156Z,99767.59
2023-01-15T22:39:01.923Z,60218.47
2023-01-15T22:42:03.436Z,60218.47
2023-01-15T22:45:05.240Z,60218.47
2023-01-15T22:48:06.623Z,60218.47
2023-01-15T22:51:07.977Z,60218.47
2023-01-15T22:54:09.718Z,60218.47
2023-01-15T22:57:12.013Z,60218.47
2023-01-15T23:00:13.877Z,60218.47
2023-01-15T23:03:15.263Z,60218.47
2023-01-15T23:06:16.729Z,60218.47
2023-01-15T23:09:19.421Z,60218.47
2023-01-15T23:12:20.792Z,60218.47
2023-01-15T23:15:22.277Z,60218.47
2023-01-15T23:18:24.314Z,60218.47
2023-01-15T23:21:25.977Z,60218.47
2023-01-15T23:24:27.344Z,60218.47
2023-01-15T23:27:28.714Z,60218.47
2023-01-15T23:30:30.098Z,60218.47
2023-01-15T23:33:32.182Z,60218.47
2023-01-15T23:36:33.558Z,60218.47
2023-01-15T23:39:34.983Z,60218.47
2023-01-15T23:42:36.348Z,60218.47
2023-01-15T23:45:37.764Z,60218.47
2023-01-15T23:48:39.199Z,60218.47
2023-01-15T23:51:40.555Z,60218.47
2023-01-15T23:54:41.904Z,60218.47
2023-01-15T23:57:43.271Z,60218.47
